Time;durP1;ratioP1;P1;durP2;ratioP2;P2;SDS_P1;SDS_P2;PMS_P1;PMS_P2;Temp;Humidity;BMP_temperature;BMP_pressure;BME280_temperature;BME280_humidity;BME280_pressure;Samples;Min_cycle;Max_cycle;Signal;HPM_P1;HPM_P2
2023/04/19 00:01:22;;;;;;;2.97;1.95;;;;;;;8.80;100.00;62903.00;5047123;28;20194;-78
2023/04/19 00:03:49;;;;;;;2.60;2.40;;;;;;;8.93;100.00;62916.44;5066274;28;20205;-77
2023/04/19 00:06:16;;;;;;;2.00;1.90;;;;;;;9.05;100.00;62934.44;5059187;28;20208;-78
2023/04/19 00:08:43;;;;;;;1.60;1.60;;;;;;;9.10;100.00;62934.53;5046207;28;20233;-77
2023/04/19 00:11:12;;;;;;;2.00;1.90;;;;;;;9.14;100.00;62946.28;5052375;28;20259;-77
2023/04/19 00:13:39;;;;;;;1.92;1.83;;;;;;;9.09;100.00;62933.47;5065022;28;20209;-79
2023/04/19 00:16:07;;;;;;;2.50;2.30;;;;;;;9.06;100.00;62929.88;5051839;28;20264;-78
2023/04/19 00:18:33;;;;;;;3.33;2.22;;;;;;;9.10;100.00;62931.97;5046137;28;20241;-77
2023/04/19 00:21:01;;;;;;;2.15;2.05;;;;;;;9.05;100.00;62931.91;5056046;28;20201;-77
2023/04/19 00:23:28;;;;;;;2.13;2.03;;;;;;;9.15;100.00;62939.69;5066274;28;20229;-78
2023/04/19 00:25:55;;;;;;;2.42;2.22;;;;;;;9.25;100.00;62949.50;5054823;28;20207;-77
2023/04/19 00:28:24;;;;;;;2.05;1.73;;;;;;;9.28;100.00;62953.13;5064967;28;20233;-78
2023/04/19 00:30:51;;;;;;;2.08;1.98;;;;;;;9.30;100.00;62957.72;5062124;28;20197;-78
2023/04/19 00:33:18;;;;;;;2.47;2.08;;;;;;;9.29;100.00;62956.69;5064419;28;20217;-78
2023/04/19 00:35:45;;;;;;;2.28;2.08;;;;;;;9.31;100.00;62958.25;5062704;28;20194;-78
2023/04/19 00:38:12;;;;;;;2.28;2.17;;;;;;;9.34;100.00;62963.88;5062459;28;20300;-78
2023/04/19 00:40:39;;;;;;;2.10;2.00;;;;;;;9.27;100.00;62954.09;5065223;28;20236;-77
2023/04/19 00:43:06;;;;;;;3.55;2.58;;;;;;;9.21;100.00;62937.75;5063860;28;20288;-76
2023/04/19 00:45:36;;;;;;;3.45;2.72;;;;;;;9.02;100.00;62926.25;5063913;28;20216;-77
2023/04/19 00:48:03;;;;;;;2.22;2.13;;;;;;;8.95;100.00;62923.59;5061635;28;20239;-77
2023/04/19 00:50:30;;;;;;;2.28;2.15;;;;;;;8.93;100.00;62916.94;5066632;28;20205;-78
2023/04/19 00:52:58;;;;;;;3.75;2.70;;;;;;;8.97;100.00;62918.53;5061992;28;20404;-78
2023/04/19 00:55:25;;;;;;;3.05;2.53;;;;;;;8.86;100.00;62907.19;5061102;28;20221;-78
2023/04/19 00:57:52;;;;;;;2.80;2.60;;;;;;;8.88;100.00;62911.78;5063171;28;20231;-78
2023/04/19 01:00:19;;;;;;;3.15;2.78;;;;;;;9.07;100.00;62928.88;5063815;28;20257;-78
2023/04/19 01:02:48;;;;;;;2.80;2.60;;;;;;;9.17;100.00;62938.69;5063083;28;20221;-78
2023/04/19 01:05:15;;;;;;;2.47;2.28;;;;;;;9.18;100.00;62942.78;5062596;28;20225;-78
2023/04/19 01:07:43;;;;;;;10.90;4.82;;;;;;;9.18;100.00;62947.38;5064362;28;20232;-76
2023/04/19 01:10:10;;;;;;;2.88;2.67;;;;;;;9.15;100.00;62936.63;5076412;28;20205;-78
2023/04/19 01:12:37;;;;;;;2.78;2.13;;;;;;;9.18;100.00;62945.31;5080126;28;20225;-79
2023/04/19 01:15:05;;;;;;;2.38;2.28;;;;;;;9.16;100.00;62943.25;5065090;28;20280;-79
2023/04/19 01:17:32;;;;;;;4.32;2.50;;;;;;;9.15;100.00;62939.69;5064556;28;20281;-79
2023/04/19 01:20:02;;;;;;;2.55;2.33;;;;;;;9.16;100.00;62940.22;5064277;28;20563;-78
2023/04/19 01:22:31;;;;;;;2.40;2.30;;;;;;;9.15;100.00;62944.25;5064333;28;20213;-77
2023/04/19 01:24:58;;;;;;;2.25;2.15;;;;;;;9.15;100.00;62944.25;5062048;28;20279;-77
2023/04/19 01:27:25;;;;;;;2.28;2.17;;;;;;;9.10;100.00;62934.53;5065299;28;20252;-78
2023/04/19 01:29:52;;;;;;;2.22;2.00;;;;;;;9.16;100.00;62945.28;5065171;28;20201;-78
2023/04/19 01:32:19;;;;;;;2.60;2.33;;;;;;;9.13;100.00;62942.19;5054339;28;20217;-78
2023/04/19 01:34:45;;;;;;;2.17;2.08;;;;;;;9.12;100.00;62938.59;5067484;28;20259;-79
2023/04/19 01:37:12;;;;;;;1.98;1.83;;;;;;;8.91;100.00;62916.91;5069502;28;20225;-78
2023/04/19 01:39:40;;;;;;;2.28;2.08;;;;;;;8.98;100.00;62924.13;5067639;28;20210;-77
2023/04/19 01:42:07;;;;;;;2.60;2.00;;;;;;;8.94;100.00;62920.50;5063932;28;20217;-78
2023/04/19 01:44:34;;;;;;;2.28;2.15;;;;;;;8.99;100.00;62922.66;5068852;28;20194;-77
2023/04/19 01:47:01;;;;;;;6.10;2.00;;;;;;;8.95;100.00;62919.03;5067627;28;20255;-77
2023/04/19 01:49:28;;;;;;;2.20;2.10;;;;;;;8.80;100.00;62903.00;5067242;28;20193;-77
2023/04/19 01:51:55;;;;;;;2.40;2.30;;;;;;;8.83;100.00;62906.63;5066069;28;20276;-76
2023/04/19 01:54:22;;;;;;;1.95;1.85;;;;;;;8.91;100.00;62916.91;5067268;28;20209;-77
2023/04/19 01:56:50;;;;;;;2.38;1.73;;;;;;;8.82;100.00;62908.13;5067749;28;20460;-77
2023/04/19 01:59:17;;;;;;;1.67;1.58;;;;;;;8.89;100.00;62915.34;5067894;28;20232;-77
2023/04/19 02:01:44;;;;;;;1.90;1.80;;;;;;;8.90;100.00;62913.84;5069556;28;20235;-77
2023/04/19 02:04:11;;;;;;;1.92;1.77;;;;;;;8.81;100.00;62904.56;5067154;28;20201;-78
2023/04/19 02:06:38;;;;;;;1.85;1.75;;;;;;;8.86;100.00;62912.25;5068864;28;20208;-77
2023/04/19 02:09:05;;;;;;;1.90;1.80;;;;;;;8.80;100.00;62903.50;5065285;28;20553;-78
2023/04/19 02:11:32;;;;;;;2.35;1.70;;;;;;;8.79;100.00;62905.03;5067401;28;20205;-77
2023/04/19 02:14:00;;;;;;;2.08;1.88;;;;;;;8.73;100.00;62896.28;5068311;28;20517;-78
2023/04/19 02:16:27;;;;;;;4.63;1.95;;;;;;;8.72;100.00;62892.19;5067093;28;20407;-78
2023/04/19 02:18:54;;;;;;;1.77;1.67;;;;;;;8.72;100.00;62894.72;5065849;28;20205;-77
2023/04/19 02:21:21;;;;;;;2.10;2.00;;;;;;;8.68;100.00;62891.09;5068062;28;20211;-79
2023/04/19 02:23:48;;;;;;;2.22;1.90;;;;;;;8.69;100.00;62892.16;5067453;28;20205;-79
2023/04/19 02:26:14;;;;;;;2.33;2.05;;;;;;;8.68;100.00;62891.09;5065481;28;20201;-78
2023/04/19 02:28:41;;;;;;;2.38;1.83;;;;;;;8.63;100.00;62888.47;5067014;28;20278;-78
2023/04/19 02:31:09;;;;;;;2.55;2.35;;;;;;;8.63;100.00;62885.44;5067064;28;20197;-78
2023/04/19 02:33:36;;;;;;;3.03;1.85;;;;;;;8.56;100.00;62881.25;5065503;28;20549;-78
2023/04/19 02:36:03;;;;;;;2.70;2.50;;;;;;;8.55;100.00;62877.16;5065941;28;20202;-79
2023/04/19 02:38:30;;;;;;;2.22;2.08;;;;;;;8.49;100.00;62876.56;5067388;28;20225;-78
2023/04/19 02:40:57;;;;;;;2.40;2.30;;;;;;;8.45;100.00;62866.84;5066149;28;20216;-78
2023/04/19 02:43:24;;;;;;;3.97;2.35;;;;;;;8.45;100.00;62864.81;5066773;28;20217;-79
2023/04/19 02:45:51;;;;;;;2.40;2.20;;;;;;;8.42;100.00;62864.25;5063712;28;20205;-78
2023/04/19 02:48:19;;;;;;;2.70;2.50;;;;;;;8.38;100.00;62860.13;5066018;28;20236;-78
2023/04/19 02:50:46;;;;;;;2.17;2.08;;;;;;;8.32;100.00;62856.47;5067781;28;20197;-78
2023/04/19 02:53:13;;;;;;;2.63;2.53;;;;;;;8.24;100.00;62848.19;5065333;28;20221;-76
2023/04/19 02:55:40;;;;;;;4.13;2.58;;;;;;;8.07;100.00;62828.63;5064463;28;20270;-77
2023/04/19 02:58:07;;;;;;;3.30;3.10;;;;;;;7.91;100.00;62814.09;5065599;28;20221;-77
2023/04/19 03:00:34;;;;;;;3.88;3.58;;;;;;;7.78;100.00;62801.19;5065315;28;20221;-77
2023/04/19 03:03:02;;;;;;;4.35;3.67;;;;;;;7.72;100.00;62800.06;5060961;28;20255;-76
2023/04/19 03:05:30;;;;;;;4.18;3.80;;;;;;;7.83;100.00;62803.31;5066824;28;20197;-78
2023/04/19 03:07:57;;;;;;;3.90;3.45;;;;;;;7.92;100.00;62813.09;5066141;28;20488;-76
2023/04/19 03:10:25;;;;;;;4.18;3.88;;;;;;;7.98;100.00;62821.84;5065573;28;20207;-76
2023/04/19 03:12:51;;;;;;;3.95;3.65;;;;;;;7.98;100.00;62821.31;5068045;28;20228;-77
2023/04/19 03:15:19;;;;;;;5.30;3.58;;;;;;;8.05;100.00;62826.03;5048919;28;20257;-77
2023/04/19 03:17:46;;;;;;;4.63;3.85;;;;;;;8.09;100.00;62832.69;5046960;28;20226;-77
2023/04/19 03:20:13;;;;;;;3.20;3.03;;;;;;;8.14;100.00;62837.84;5065427;28;20228;-78
2023/04/19 03:22:41;;;;;;;3.78;3.03;;;;;;;8.19;100.00;62840.47;5046484;28;20218;-77
2023/04/19 03:25:11;;;;;;;3.65;3.35;;;;;;;8.22;100.00;62846.13;5051251;28;20232;-78
2023/04/19 03:27:38;;;;;;;3.40;3.10;;;;;;;8.15;100.00;62836.88;5066285;28;20446;-77
2023/04/19 03:30:06;;;;;;;4.43;3.42;;;;;;;8.16;100.00;62839.94;5064286;28;20387;-78
2023/04/19 03:32:32;;;;;;;3.97;3.67;;;;;;;8.17;100.00;62838.94;5057887;28;20260;-78
2023/04/19 03:34:59;;;;;;;3.95;3.65;;;;;;;8.12;100.00;62836.31;5059810;28;20261;-79
2023/04/19 03:37:26;;;;;;;4.15;3.85;;;;;;;8.22;100.00;62843.56;5065560;28;20206;-77
2023/04/19 03:39:55;;;;;;;4.55;3.75;;;;;;;8.26;100.00;62852.28;5051004;28;20320;-78
2023/04/19 03:42:22;;;;;;;5.07;4.13;;;;;;;8.30;100.00;62856.41;5059027;28;20552;-77
2023/04/19 03:44:48;;;;;;;4.20;3.80;;;;;;;8.33;100.00;62854.44;5065043;28;20205;-77
2023/04/19 03:47:15;;;;;;;4.40;4.00;;;;;;;8.39;100.00;62861.16;5063470;28;20213;-77
2023/04/19 03:49:42;;;;;;;5.63;5.20;;;;;;;8.41;100.00;62865.75;5062433;28;20233;-79
2023/04/19 03:52:10;;;;;;;4.70;3.65;;;;;;;8.41;100.00;62862.69;5055539;28;20244;-77
2023/04/19 03:54:37;;;;;;;3.80;3.50;;;;;;;8.50;100.00;62874.53;5065497;28;20209;-78
2023/04/19 03:57:05;;;;;;;3.75;3.47;;;;;;;8.48;100.00;62873.00;5057095;28;20223;-78
2023/04/19 03:59:33;;;;;;;4.35;3.97;;;;;;;8.46;100.00;62870.91;5055863;28;20380;-79
2023/04/19 04:01:59;;;;;;;4.75;4.35;;;;;;;8.43;100.00;62867.81;5064801;28;20221;-79
2023/04/19 04:04:27;;;;;;;4.20;3.90;;;;;;;8.32;100.00;62855.97;5065240;28;20204;-78
2023/04/19 04:06:54;;;;;;;4.15;3.78;;;;;;;8.31;100.00;62854.91;5066155;28;20248;-77
2023/04/19 04:09:21;;;;;;;4.10;3.67;;;;;;;8.28;100.00;62849.81;5054378;28;20225;-79
2023/04/19 04:11:48;;;;;;;3.65;3.45;;;;;;;8.24;100.00;62848.19;5064025;28;20263;-80
2023/04/19 04:14:17;;;;;;;3.63;3.40;;;;;;;8.16;100.00;62834.84;5064004;28;20281;-78
2023/04/19 04:16:43;;;;;;;3.65;3.40;;;;;;;8.10;100.00;62831.72;5061181;28;20271;-78
2023/04/19 04:19:10;;;;;;;3.53;3.33;;;;;;;7.98;100.00;62818.78;5045165;28;20197;-77
2023/04/19 04:21:38;;;;;;;4.55;3.85;;;;;;;7.84;100.00;62806.88;5045509;28;20202;-78
2023/04/19 04:24:06;;;;;;;3.40;3.20;;;;;;;7.88;100.00;62809.00;5052700;28;20212;-79
2023/04/19 04:26:34;;;;;;;3.42;3.20;;;;;;;7.98;100.00;62821.84;5064140;28;20201;-79
2023/04/19 04:29:01;;;;;;;6.03;3.58;;;;;;;7.99;100.00;62822.34;5063090;28;20557;-78
2023/04/19 04:31:30;;;;;;;4.88;4.47;;;;;;;7.99;100.00;62822.34;5063918;28;20221;-79
2023/04/19 04:33:57;;;;;;;5.07;3.60;;;;;;;8.00;100.00;62818.31;5065665;28;20373;-78
2023/04/19 04:36:25;;;;;;;3.85;3.55;;;;;;;8.12;100.00;62830.72;5066799;28;20228;-80
2023/04/19 04:38:51;;;;;;;4.30;3.90;;;;;;;7.93;100.00;62813.63;5067026;28;20194;-80
2023/04/19 04:41:19;;;;;;;6.55;4.20;;;;;;;8.02;100.00;62823.44;5069715;28;20250;-79
2023/04/19 04:43:50;;;;;;;4.85;4.45;;;;;;;8.01;100.00;62824.94;5062343;28;20224;-77
2023/04/19 04:46:17;;;;;;;4.70;4.38;;;;;;;8.16;100.00;62837.38;5050016;28;20201;-79
2023/04/19 04:48:45;;;;;;;4.55;3.90;;;;;;;8.26;100.00;62844.69;5065623;28;20225;-79
2023/04/19 04:51:12;;;;;;;5.13;4.65;;;;;;;8.13;100.00;62834.28;5063976;28;20202;-79
2023/04/19 04:53:39;;;;;;;5.03;4.15;;;;;;;8.17;100.00;62838.94;5061244;28;20439;-79
2023/04/19 04:56:06;;;;;;;4.00;3.70;;;;;;;8.25;100.00;62839.09;5066632;28;20202;-79
2023/04/19 04:58:33;;;;;;;4.55;4.03;;;;;;;8.30;100.00;62851.34;5065252;28;20272;-78
2023/04/19 05:01:00;;;;;;;4.32;4.03;;;;;;;8.37;100.00;62858.59;5063967;28;20201;-78
2023/04/19 05:03:27;;;;;;;4.13;3.78;;;;;;;8.47;100.00;62871.44;5064222;28;20630;-78
2023/04/19 05:05:56;;;;;;;6.03;3.72;;;;;;;8.52;100.00;62874.59;5065868;28;20193;-79
2023/04/19 05:08:23;;;;;;;4.05;3.75;;;;;;;8.48;100.00;62867.41;5057595;28;20255;-78
2023/04/19 05:10:50;;;;;;;3.97;3.63;;;;;;;8.60;100.00;62882.31;5067793;28;20199;-78
2023/04/19 05:13:18;;;;;;;3.88;3.53;;;;;;;8.57;100.00;62882.28;5068287;28;20221;-80
2023/04/19 05:15:45;;;;;;;4.57;4.18;;;;;;;8.62;100.00;62884.41;5070536;28;20189;-77
2023/04/19 05:18:12;;;;;;;3.70;3.50;;;;;;;8.71;100.00;62893.69;5068184;28;20235;-79
2023/04/19 05:20:39;;;;;;;5.90;3.92;;;;;;;8.79;100.00;62902.47;5066686;28;20194;-78
2023/04/19 05:23:09;;;;;;;3.80;3.50;;;;;;;8.92;100.00;62915.41;5068457;28;20521;-79
2023/04/19 05:25:36;;;;;;;4.28;3.97;;;;;;;9.05;100.00;62931.38;5068105;28;20236;-79
2023/04/19 05:28:03;;;;;;;3.65;3.45;;;;;;;9.18;100.00;62942.28;5068345;28;20534;-78
2023/04/19 05:30:30;;;;;;;3.78;3.47;;;;;;;8.99;100.00;62927.72;5059872;28;20381;-79
2023/04/19 05:32:57;;;;;;;4.80;2.97;;;;;;;8.51;100.00;62875.59;5048252;28;20301;-77
2023/04/19 05:35:24;;;;;;;4.10;3.80;;;;;;;8.54;100.00;62878.69;5058805;28;20473;-77
2023/04/19 05:37:51;;;;;;;4.13;3.78;;;;;;;8.69;100.00;62892.16;5056440;28;20267;-77
2023/04/19 05:40:19;;;;;;;3.28;3.08;;;;;;;8.82;100.00;62905.06;5069542;28;20202;-78
2023/04/19 05:42:46;;;;;;;3.55;3.25;;;;;;;9.00;100.00;62921.13;5070426;28;20223;-78
2023/04/19 05:45:14;;;;;;;3.47;3.28;;;;;;;9.11;100.00;62935.03;5062825;28;20217;-79
2023/04/19 05:47:41;;;;;;;3.60;3.40;;;;;;;8.94;100.00;62917.47;5065426;28;20248;-78
2023/04/19 05:50:09;;;;;;;3.28;3.08;;;;;;;8.62;100.00;62887.47;5047944;28;20226;-78
2023/04/19 05:52:36;;;;;;;4.28;3.45;;;;;;;8.63;100.00;62891.03;5053265;28;20221;-81
2023/04/19 05:55:04;;;;;;;4.07;3.78;;;;;;;8.70;100.00;62893.19;5067535;28;20217;-78
2023/04/19 05:57:32;;;;;;;4.15;3.55;;;;;;;8.63;100.00;62883.41;5071255;28;20289;-77
2023/04/19 05:59:59;;;;;;;3.75;3.13;;;;;;;8.57;100.00;62877.22;5068397;28;20497;-78
2023/04/19 06:02:25;;;;;;;3.83;3.55;;;;;;;8.82;100.00;62905.56;5067256;28;20295;-78
2023/04/19 06:04:52;;;;;;;7.55;4.15;;;;;;;8.59;100.00;62881.81;5066169;28;20456;-79
2023/04/19 06:07:19;;;;;;;3.70;3.40;;;;;;;8.60;100.00;62880.31;5068142;28;20251;-79
2023/04/19 06:09:46;;;;;;;4.13;3.75;;;;;;;8.34;100.00;62858.53;5069842;28;20256;-78
2023/04/19 06:12:13;;;;;;;4.63;4.10;;;;;;;8.51;100.00;62873.53;5068819;28;20261;-80
2023/04/19 06:14:42;;;;;;;4.53;4.13;;;;;;;8.92;100.00;62912.88;5051807;28;20202;-79
2023/04/19 06:17:09;;;;;;;3.72;3.47;;;;;;;8.97;100.00;62921.06;5048846;28;20285;-78
2023/04/19 06:19:36;;;;;;;4.68;4.28;;;;;;;9.15;100.00;62939.16;5052903;28;20201;-78
2023/04/19 06:22:03;;;;;;;4.20;3.78;;;;;;;9.31;100.00;62958.25;5065964;28;20244;-78
2023/04/19 06:24:30;;;;;;;3.97;3.67;;;;;;;9.48;100.00;62973.28;5051423;28;20202;-79
2023/04/19 06:26:57;;;;;;;5.38;4.43;;;;;;;9.69;100.00;62994.47;5069416;28;20560;-79
2023/04/19 06:29:24;;;;;;;4.60;4.10;;;;;;;9.56;100.00;62984.09;5067533;28;20236;-78
2023/04/19 06:31:52;;;;;;;3.50;3.28;;;;;;;9.43;100.00;62968.13;5059638;28;20218;-79
2023/04/19 06:34:19;;;;;;;2.90;2.80;;;;;;;9.39;100.00;62961.44;5059287;28;20280;-76
2023/04/19 06:36:46;;;;;;;3.97;3.50;;;;;;;9.38;100.00;62962.44;5066944;28;20276;-77
2023/04/19 06:39:13;;;;;;;4.18;3.88;;;;;;;9.31;100.00;62958.25;5071476;28;20239;-76
2023/04/19 06:41:40;;;;;;;4.20;3.08;;;;;;;9.47;100.00;62972.25;5056433;28;20243;-78
2023/04/19 06:44:07;;;;;;;3.33;3.13;;;;;;;9.77;100.00;63000.22;5055915;28;20220;-78
2023/04/19 06:46:34;;;;;;;4.22;2.90;;;;;;;9.70;100.00;62993.50;5063755;28;20269;-76
2023/04/19 06:49:02;;;;;;;3.67;3.38;;;;;;;9.94;100.00;63020.84;5065629;28;20248;-77
2023/04/19 06:51:29;;;;;;;3.90;3.60;;;;;;;9.98;100.00;63021.94;5078739;28;20219;-78
2023/04/19 06:53:56;;;;;;;3.40;3.20;;;;;;;10.06;100.00;63028.19;5069196;28;20232;-77
2023/04/19 06:56:44;;;;;;;3.30;3.10;;;;;;;10.13;100.00;63037.97;5060815;28;20220;-78
2023/04/19 06:59:11;;;;;;;3.45;3.25;;;;;;;10.29;100.00;63057.09;5066329;28;20189;-78
2023/04/19 07:01:39;;;;;;;3.13;3.00;;;;;;;10.38;100.00;63071.50;5062595;28;20209;-77
2023/04/19 07:04:08;;;;;;;3.20;2.70;;;;;;;10.63;100.00;63088.69;5080722;28;20515;-77
2023/04/19 07:06:36;;;;;;;3.25;3.00;;;;;;;10.53;100.00;63080.91;5062943;28;20212;-79
2023/04/19 07:09:04;;;;;;;3.40;3.17;;;;;;;10.44;100.00;63079.72;5077691;28;20224;-77
2023/04/19 07:11:31;;;;;;;3.25;3.05;;;;;;;10.73;100.00;63104.66;5073062;28;20205;-77
2023/04/19 07:13:58;;;;;;;3.33;3.00;;;;;;;11.07;100.00;63131.69;5061193;28;20197;-79
2023/04/19 07:16:25;;;;;;;3.42;3.00;;;;;;;10.86;100.00;63117.59;5070931;28;20230;-77
2023/04/19 07:18:52;;;;;;;3.30;3.10;;;;;;;11.14;100.00;63146.59;5086624;28;20196;-77
2023/04/19 07:21:21;;;;;;;2.78;2.58;;;;;;;11.20;100.00;63150.75;5065464;28;20479;-78
2023/04/19 07:23:48;;;;;;;2.67;2.58;;;;;;;11.36;100.00;63169.38;5062307;28;20209;-77
2023/04/19 07:26:15;;;;;;;2.72;2.60;;;;;;;11.46;100.00;63177.16;5079037;28;20249;-77
2023/04/19 07:28:42;;;;;;;2.75;2.55;;;;;;;11.35;100.00;63166.31;5079178;28;20216;-77
2023/04/19 07:31:15;;;;;;;2.65;2.45;;;;;;;11.32;100.00;63165.75;5072795;28;20201;-77
2023/04/19 07:33:43;;;;;;;2.05;1.95;;;;;;;11.12;100.00;63147.59;5059563;28;20256;-77
2023/04/19 07:36:10;;;;;;;2.47;2.33;;;;;;;10.33;100.00;63063.25;5073487;28;20225;-78
2023/04/19 07:38:38;;;;;;;2.78;2.58;;;;;;;10.28;100.00;63055.53;5065339;28;20221;-77
2023/04/19 07:41:06;;;;;;;3.17;2.28;;;;;;;10.81;100.00;63112.94;5065571;28;20244;-78
2023/04/19 07:43:33;;;;;;;2.78;2.58;;;;;;;10.94;100.00;63125.88;5061409;28;20221;-76
2023/04/19 07:46:00;;;;;;;2.13;1.90;;;;;;;11.26;100.00;63162.09;5069460;28;20201;-77
2023/04/19 07:48:27;;;;;;;2.42;2.22;;;;;;;11.44;100.00;63175.13;5053749;28;20263;-77
2023/04/19 07:50:54;;;;;;;5.25;2.00;;;;;;;11.44;100.00;63175.13;5055662;28;20280;-76
2023/04/19 07:53:21;;;;;;;2.70;2.53;;;;;;;11.68;100.00;63202.03;5055316;28;20287;-77
2023/04/19 07:55:49;;;;;;;2.95;2.75;;;;;;;10.73;100.00;63102.13;5055777;28;20194;-77
2023/04/19 07:58:16;;;;;;;2.88;2.67;;;;;;;10.38;100.00;63065.88;5054302;28;20266;-77
2023/04/19 08:00:43;;;;;;;1.98;1.88;;;;;;;10.29;100.00;63057.09;5058823;28;20422;-74
2023/04/19 08:03:10;;;;;;;2.85;2.65;;;;;;;10.49;100.00;63082.38;5058119;28;20446;-77
2023/04/19 08:05:37;;;;;;;2.20;2.10;;;;;;;10.48;100.00;63073.69;5058968;28;20495;-78
2023/04/19 08:08:04;;;;;;;2.20;2.10;;;;;;;11.04;100.00;63139.31;5053793;28;20620;-79
2023/04/19 08:10:31;;;;;;;2.95;2.40;;;;;;;11.47;100.00;63180.75;5059393;28;20422;-78
2023/04/19 08:12:59;;;;;;;2.33;2.22;;;;;;;11.59;100.00;63191.16;5058360;28;20221;-79
2023/04/19 08:15:27;;;;;;;3.40;2.10;;;;;;;11.41;100.00;63172.00;5057327;28;20229;-78
2023/04/19 08:17:53;;;;;;;2.45;2.35;;;;;;;11.05;100.00;63140.34;5054426;28;20289;-79
2023/04/19 08:20:22;;;;;;;2.50;2.30;;;;;;;11.40;100.00;63174.03;5060153;28;20203;-78
2023/04/19 08:22:49;;;;;;;2.20;1.95;;;;;;;10.87;100.00;63121.69;5051652;28;20232;-77
2023/04/19 08:25:17;;;;;;;2.17;2.08;;;;;;;10.77;100.00;63105.75;5056303;28;20211;-78
2023/04/19 08:27:44;;;;;;;2.50;2.30;;;;;;;10.90;100.00;63117.16;5053825;28;20245;-78
2023/04/19 08:30:13;;;;;;;2.47;2.28;;;;;;;10.67;100.00;63095.91;5052372;28;20225;-77
2023/04/19 08:32:40;;;;;;;2.63;2.42;;;;;;;10.54;100.00;63081.94;5055583;28;20290;-77
2023/04/19 08:35:09;;;;;;;3.15;2.88;;;;;;;10.53;100.00;63080.91;5058886;28;20613;-77
2023/04/19 08:37:36;;;;;;;3.10;2.90;;;;;;;10.59;100.00;63090.16;5052823;28;20543;-78
2023/04/19 08:40:04;;;;;;;2.55;2.30;;;;;;;10.90;100.00;63122.25;5060001;28;20205;-77
2023/04/19 08:42:32;;;;;;;2.78;2.58;;;;;;;10.56;100.00;63089.59;5058901;28;20564;-78
2023/04/19 08:45:03;;;;;;;2.95;2.75;;;;;;;10.98;100.00;63127.47;5058660;28;20213;-79
2023/04/19 08:47:33;;;;;;;2.80;2.60;;;;;;;11.52;100.00;63186.47;5059793;28;20228;-78
2023/04/19 08:50:02;;;;;;;3.40;2.90;;;;;;;11.38;100.00;63166.34;5061971;28;20217;-78
2023/04/19 08:52:30;;;;;;;2.00;1.90;;;;;;;11.39;100.00;63173.00;5054622;28;20222;-76
2023/04/19 08:54:58;;;;;;;4.70;2.58;;;;;;;11.68;100.00;63200.00;5060939;28;20193;-78
2023/04/19 08:57:25;;;;;;;2.58;2.47;;;;;;;11.67;100.00;63198.41;5058554;28;20561;-78
2023/04/19 08:59:54;;;;;;;2.30;2.20;;;;;;;11.79;100.00;63208.81;5064938;28;20259;-78
2023/04/19 09:02:22;;;;;;;3.15;2.58;;;;;;;12.05;98.06;63240.34;5062446;28;20367;-77
2023/04/19 09:04:50;;;;;;;2.88;2.67;;;;;;;12.49;95.47;63283.41;5063550;28;20205;-77
2023/04/19 09:07:24;;;;;;;2.45;2.35;;;;;;;12.68;94.37;63303.13;5060033;28;20259;-77
2023/04/19 09:10:06;;;;;;;3.58;2.15;;;;;;;12.28;95.64;63261.66;5058862;28;20221;-76
2023/04/19 09:12:33;;;;;;;2.72;2.53;;;;;;;12.65;95.64;63300.50;5060464;28;20243;-77
2023/04/19 09:15:02;;;;;;;3.13;2.17;;;;;;;12.91;90.59;63332.06;5059081;28;20201;-77
2023/04/19 09:17:29;;;;;;;2.35;2.15;;;;;;;13.26;90.89;63362.75;5057651;28;20383;-78
2023/04/19 09:19:58;;;;;;;3.15;2.97;;;;;;;12.30;93.62;63261.16;5062911;28;20232;-77
2023/04/19 09:22:26;;;;;;;2.10;2.00;;;;;;;11.96;96.69;63226.44;5059134;28;20213;-77
2023/04/19 09:24:53;;;;;;;2.75;2.55;;;;;;;11.95;98.06;63230.50;5063043;28;20201;-79
2023/04/19 09:27:27;;;;;;;3.10;2.90;;;;;;;12.59;96.78;63298.88;5056083;28;20218;-77
2023/04/19 09:29:55;;;;;;;2.70;2.55;;;;;;;12.19;96.25;63252.31;5059354;28;20212;-77
2023/04/19 09:32:22;;;;;;;2.92;2.72;;;;;;;12.57;95.63;63294.78;5062430;28;20241;-77
2023/04/19 09:34:58;;;;;;;3.25;3.05;;;;;;;11.95;97.18;63230.50;5058629;28;20197;-77
2023/04/19 09:37:25;;;;;;;2.80;2.60;;;;;;;11.56;100.00;63190.09;5056260;28;20279;-76
2023/04/19 09:39:52;;;;;;;3.03;2.83;;;;;;;11.51;100.00;63179.78;5063063;28;20248;-77
2023/04/19 09:42:19;;;;;;;2.10;2.00;;;;;;;11.91;98.05;63223.81;5061585;28;20217;-76
2023/04/19 09:44:57;;;;;;;2.58;2.38;;;;;;;11.55;100.00;63191.59;5059405;28;20197;-79
2023/04/19 09:47:24;;;;;;;3.20;2.65;;;;;;;11.92;99.59;63229.44;5056838;28;20271;-76
2023/04/19 09:50:07;;;;;;;2.97;2.58;;;;;;;11.57;99.52;63191.66;5058452;28;20564;-76
2023/04/19 09:52:35;;;;;;;3.25;2.97;;;;;;;11.81;100.00;63213.47;5057938;28;20294;-77
2023/04/19 09:55:04;;;;;;;2.58;2.45;;;;;;;12.38;97.86;63269.44;5060988;28;20223;-78
2023/04/19 09:57:32;;;;;;;2.40;2.20;;;;;;;12.55;96.03;63295.25;5060794;28;20229;-77
2023/04/19 10:00:00;;;;;;;2.65;2.45;;;;;;;12.05;96.86;63240.34;5061583;28;20203;-77
2023/04/19 10:02:31;;;;;;;2.35;2.25;;;;;;;12.55;93.19;63289.63;5059736;28;20239;-78
2023/04/19 10:04:59;;;;;;;2.05;1.95;;;;;;;12.51;94.19;63290.59;5059613;28;20189;-77
2023/04/19 10:07:28;;;;;;;2.65;2.55;;;;;;;12.57;92.51;63292.22;5056323;28;20256;-78
2023/04/19 10:09:57;;;;;;;3.35;2.58;;;;;;;12.82;91.67;63322.22;5064659;28;20308;-78
2023/04/19 10:12:25;;;;;;;2.20;2.08;;;;;;;12.92;91.25;63328.00;5053354;28;20229;-77
2023/04/19 10:14:55;;;;;;;2.92;1.80;;;;;;;12.83;88.61;63323.78;5055091;28;20445;-76
2023/04/19 10:17:23;;;;;;;2.08;1.98;;;;;;;12.69;92.28;63304.66;5056247;28;20217;-77
2023/04/19 10:19:56;;;;;;;2.95;2.10;;;;;;;12.36;92.76;63270.47;5056185;28;20220;-77
2023/04/19 10:22:23;;;;;;;1.98;1.88;;;;;;;12.26;94.70;63262.66;5057970;28;20296;-77
2023/04/19 10:25:12;;;;;;;2.30;2.10;;;;;;;12.65;91.10;63300.50;5061169;28;20212;-77
2023/04/19 10:27:40;;;;;;;1.00;1.00;;;;;;;12.19;90.53;63249.75;5057318;28;20409;-77
2023/04/19 10:30:16;;;;;;;1.88;1.77;;;;;;;11.97;95.66;63235.16;5059223;28;20217;-77
2023/04/19 10:32:46;;;;;;;2.20;2.10;;;;;;;12.23;95.21;63259.53;5059307;28;20260;-77
2023/04/19 10:35:19;;;;;;;2.10;1.75;;;;;;;12.09;91.05;63241.94;5054397;28;20211;-77
2023/04/19 10:38:08;;;;;;;1.90;1.80;;;;;;;12.25;90.38;63261.09;5054237;28;20633;-78
2023/04/19 10:41:00;;;;;;;1.88;1.77;;;;;;;12.40;88.87;63274.59;5059970;28;20197;-78
2023/04/19 10:43:28;;;;;;;1.70;1.60;;;;;;;12.22;89.82;63258.50;5057066;28;20213;-78
2023/04/19 10:45:59;;;;;;;1.98;1.88;;;;;;;12.42;91.99;63276.16;5056642;28;20218;-77
2023/04/19 10:48:37;;;;;;;2.42;2.22;;;;;;;12.37;92.17;63273.53;5054558;28;20218;-77
2023/04/19 10:51:11;;;;;;;2.13;1.92;;;;;;;12.36;93.05;63272.47;5057118;28;20240;-75
2023/04/19 10:53:55;;;;;;;1.83;1.73;;;;;;;12.41;90.52;63273.09;5057342;28;20235;-77
2023/04/19 10:57:00;;;;;;;2.40;2.25;;;;;;;12.41;90.96;63275.13;5053880;28;20193;-79
2023/04/19 10:59:29;;;;;;;1.88;1.70;;;;;;;12.32;89.84;63261.19;5051789;28;20216;-76
2023/04/19 11:01:58;;;;;;;2.42;1.92;;;;;;;12.31;89.85;63269.84;5056479;28;20221;-76
2023/04/19 11:04:59;;;;;;;1.63;1.52;;;;;;;12.65;87.62;63297.44;5056197;28;20510;-78
2023/04/19 11:07:26;;;;;;;2.28;1.73;;;;;;;12.82;84.23;63317.63;5053984;28;20240;-77
2023/04/19 11:09:53;;;;;;;1.65;1.55;;;;;;;12.96;80.73;63334.69;5054981;28;20201;-78
2023/04/19 11:12:22;;;;;;;1.83;1.48;;;;;;;13.00;81.89;63338.31;5056741;28;20256;-78
2023/04/19 11:14:51;;;;;;;1.80;1.70;;;;;;;13.24;78.55;63363.75;5058418;28;20534;-78
2023/04/19 11:17:24;;;;;;;1.70;1.60;;;;;;;13.45;78.05;63385.56;5055696;28;20232;-77
2023/04/19 11:19:55;;;;;;;2.20;2.00;;;;;;;13.07;80.63;63346.13;5057442;28;20216;-78
2023/04/19 11:22:26;;;;;;;5.82;2.03;;;;;;;13.23;83.03;63359.66;5053927;28;20282;-77
2023/04/19 11:24:53;;;;;;;2.40;2.30;;;;;;;13.69;81.35;63407.91;5057493;28;20217;-80
2023/04/19 11:27:22;;;;;;;2.80;2.60;;;;;;;13.70;82.06;63408.94;5056937;28;20236;-81
2023/04/19 11:29:49;;;;;;;1.85;1.75;;;;;;;13.85;74.34;63421.97;5058002;28;20232;-78
2023/04/19 11:32:15;;;;;;;4.65;1.63;;;;;;;13.78;73.52;63421.84;5059158;28;20633;-79
2023/04/19 11:34:42;;;;;;;2.00;1.90;;;;;;;13.83;72.75;63419.88;5057093;28;20209;-78
2023/04/19 11:37:11;;;;;;;1.92;1.75;;;;;;;13.95;68.38;63436.94;5059628;28;21338;-78